Time;durP1;ratioP1;P1;durP2;ratioP2;P2;SDS_P1;SDS_P2;PMS_P1;PMS_P2;Temp;Humidity;BMP_temperature;BMP_pressure;BME280_temperature;BME280_humidity;BME280_pressure;Samples;Min_cycle;Max_cycle;Signal;HPM_P1;HPM_P2
2023/07/23 00:00:47;;;;;;;8.80;5.80;;;;;;;14.71;65.45;100540.91;105487;1277;97962;-82
2023/07/23 00:03:44;;;;;;;9.50;6.40;;;;;;;14.69;65.33;100539.33;105665;1271;98315;-80
2023/07/23 00:06:30;;;;;;;10.50;6.50;;;;;;;14.66;65.45;100537.45;105544;1271;101992;-82
2023/07/23 00:09:16;;;;;;;10.30;5.90;;;;;;;14.61;65.48;100528.27;105552;1270;101020;-83
2023/07/23 00:12:02;;;;;;;8.00;5.40;;;;;;;14.55;65.60;100525.01;105386;1271;99085;-82
2023/07/23 00:14:48;;;;;;;7.90;6.30;;;;;;;14.48;65.86;100522.84;105511;1271;98231;-82
2023/07/23 00:17:34;;;;;;;11.00;6.00;;;;;;;14.46;65.98;100526.20;105522;1270;98753;-82
2023/07/23 00:20:19;;;;;;;8.70;6.60;;;;;;;14.44;66.17;100522.62;105532;1270;102637;-81
2023/07/23 00:23:05;;;;;;;12.20;6.60;;;;;;;14.37;66.67;100519.66;105652;1273;99175;-81
2023/07/23 00:25:50;;;;;;;11.00;7.00;;;;;;;14.37;66.77;100516.96;105560;1271;99156;-79
2023/07/23 00:28:36;;;;;;;10.70;7.40;;;;;;;14.39;66.79;100516.11;105563;1270;98270;-81
2023/07/23 00:31:21;;;;;;;12.50;7.10;;;;;;;14.38;66.70;100512.84;105370;1271;97955;-81
2023/07/23 00:34:07;;;;;;;11.30;7.00;;;;;;;14.35;66.89;100511.95;105438;1273;102639;-81
2023/07/23 00:36:52;;;;;;;9.40;6.70;;;;;;;14.33;67.02;100516.89;105546;1274;99166;-82
2023/07/23 00:39:38;;;;;;;10.40;7.40;;;;;;;14.30;66.89;100514.61;105553;1271;98140;-81
2023/07/23 00:42:23;;;;;;;11.70;7.30;;;;;;;14.26;66.81;100512.04;105437;1276;97803;-81
2023/07/23 00:45:09;;;;;;;9.40;6.50;;;;;;;14.20;67.02;100511.60;105721;1271;98442;-82
2023/07/23 00:47:55;;;;;;;8.60;6.10;;;;;;;14.15;67.22;100512.77;105484;1275;101477;-81
2023/07/23 00:50:41;;;;;;;8.90;6.70;;;;;;;14.12;67.30;100508.39;105294;1271;99212;-81
2023/07/23 00:53:26;;;;;;;10.80;7.20;;;;;;;14.09;67.51;100506.13;105562;1271;98890;-81
2023/07/23 00:56:12;;;;;;;10.00;6.90;;;;;;;14.06;67.55;100509.27;105246;1271;97978;-81
2023/07/23 00:58:58;;;;;;;9.20;6.70;;;;;;;14.00;67.62;100513.67;105594;1273;98555;-80
2023/07/23 01:01:44;;;;;;;10.90;6.40;;;;;;;13.95;67.91;100510.42;105690;1274;101444;-82
2023/07/23 01:04:30;;;;;;;11.60;7.40;;;;;;;13.94;68.23;100507.83;105524;1272;99115;-80
2023/07/23 01:07:16;;;;;;;7.90;6.10;;;;;;;13.92;68.13;100510.44;105421;1273;97929;-83
2023/07/23 01:10:03;;;;;;;8.90;6.00;;;;;;;13.91;68.37;100507.29;105261;1271;97990;-82
2023/07/23 01:12:49;;;;;;;9.90;6.10;;;;;;;13.91;68.30;100501.15;105413;1274;98700;-82
2023/07/23 01:15:35;;;;;;;11.20;6.30;;;;;;;13.88;68.30;100499.41;105603;1271;101416;-83
2023/07/23 01:18:21;;;;;;;7.60;5.80;;;;;;;13.85;68.32;100495.65;105504;1276;100094;-81
2023/07/23 01:21:07;;;;;;;9.00;6.00;;;;;;;13.79;68.57;100492.85;105530;1271;98119;-80
2023/07/23 01:23:52;;;;;;;10.60;6.90;;;;;;;13.72;68.71;100490.70;105556;1276;97901;-81
2023/07/23 01:26:38;;;;;;;8.60;6.90;;;;;;;13.70;68.58;100491.91;105543;1274;97825;-81
2023/07/23 01:29:23;;;;;;;10.60;7.50;;;;;;;13.69;68.68;100494.27;105532;1275;101546;-80
2023/07/23 01:32:09;;;;;;;10.30;7.20;;;;;;;13.67;68.99;100493.02;105436;1270;99092;-80
2023/07/23 01:34:58;;;;;;;8.90;6.70;;;;;;;13.67;69.09;100496.02;105335;1271;97907;-81
2023/07/23 01:37:47;;;;;;;9.40;6.70;;;;;;;13.66;69.34;100492.88;105938;1270;98090;-80
2023/07/23 01:40:32;;;;;;;10.00;6.90;;;;;;;13.67;69.37;100497.46;106023;1273;98469;-80
2023/07/23 01:43:18;;;;;;;10.90;7.00;;;;;;;13.67;69.35;100498.42;105504;1272;101453;-81
2023/07/23 01:46:03;;;;;;;9.80;6.80;;;;;;;13.66;69.33;100502.73;105626;1276;99318;-79
2023/07/23 01:48:49;;;;;;;9.20;6.80;;;;;;;13.65;69.38;100506.04;105379;1270;98633;-80
2023/07/23 01:51:34;;;;;;;9.10;6.30;;;;;;;13.65;69.28;100501.54;105533;1273;97898;-80
2023/07/23 01:54:20;;;;;;;12.80;7.10;;;;;;;13.63;69.14;100501.32;105444;1271;97683;-80
2023/07/23 01:57:05;;;;;;;10.00;7.10;;;;;;;13.62;69.30;100500.24;105684;1271;102156;-82
2023/07/23 01:59:51;;;;;;;9.60;6.70;;;;;;;13.59;69.19;100498.35;105357;1276;99305;-81
2023/07/23 02:02:36;;;;;;;12.30;6.30;;;;;;;13.52;69.44;100498.56;105571;1272;99022;-80
2023/07/23 02:05:22;;;;;;;9.40;6.80;;;;;;;13.48;69.63;100501.80;105682;1272;97994;-81
2023/07/23 02:08:09;;;;;;;11.40;6.30;;;;;;;13.43;69.46;100500.23;105407;1277;98037;-81
2023/07/23 02:10:59;;;;;;;8.90;6.60;;;;;;;13.36;69.61;100499.89;105255;1274;101456;-80
2023/07/23 02:13:44;;;;;;;7.90;6.10;;;;;;;13.31;69.76;100502.95;105533;1274;101529;-81
2023/07/23 02:16:30;;;;;;;10.70;5.90;;;;;;;13.24;69.59;100509.48;105680;1271;97926;-81
2023/07/23 02:19:15;;;;;;;10.40;6.60;;;;;;;13.17;69.94;100505.92;105510;1274;97986;-81
2023/07/23 02:22:01;;;;;;;8.60;6.60;;;;;;;13.12;70.02;100503.69;105335;1277;98519;-81
2023/07/23 02:24:46;;;;;;;10.90;6.10;;;;;;;13.04;69.87;100497.79;105440;1270;102624;-81
2023/07/23 02:27:33;;;;;;;7.80;6.50;;;;;;;12.93;70.02;100498.50;105715;1274;100495;-80
2023/07/23 02:30:19;;;;;;;9.20;6.50;;;;;;;12.86;70.25;100498.35;106417;1274;97818;-80
2023/07/23 02:33:05;;;;;;;10.00;7.00;;;;;;;12.84;70.29;100500.06;105455;1271;97898;-80
2023/07/23 02:35:50;;;;;;;8.70;6.50;;;;;;;12.85;70.28;100497.48;105595;1276;99564;-82
2023/07/23 02:38:36;;;;;;;9.40;6.10;;;;;;;12.83;70.66;100495.87;105463;1274;101468;-80
2023/07/23 02:41:22;;;;;;;11.50;6.70;;;;;;;12.81;70.69;100493.52;105617;1274;100474;-82
2023/07/23 02:44:08;;;;;;;9.20;6.90;;;;;;;12.76;70.58;100492.92;105478;1276;99447;-82
2023/07/23 02:46:54;;;;;;;8.00;6.50;;;;;;;12.71;70.96;100492.70;105525;1270;98089;-81
2023/07/23 02:49:39;;;;;;;7.70;5.90;;;;;;;12.67;71.05;100489.92;105587;1274;98078;-81
2023/07/23 02:52:24;;;;;;;8.00;6.40;;;;;;;12.63;70.94;100490.20;105362;1270;102605;-82
2023/07/23 02:55:10;;;;;;;9.40;5.70;;;;;;;12.64;71.04;100491.44;105453;1270;99837;-81
2023/07/23 02:57:56;;;;;;;7.00;5.90;;;;;;;12.67;71.29;100494.42;105470;1271;97991;-79
2023/07/23 03:00:44;;;;;;;7.50;6.20;;;;;;;12.68;71.05;100494.23;105415;1271;99487;-82
2023/07/23 03:03:29;;;;;;;10.80;5.90;;;;;;;12.70;71.18;100495.70;105322;1277;97993;-82
2023/07/23 03:06:16;;;;;;;9.50;5.50;;;;;;;12.74;71.33;100497.59;105414;1274;102735;-81
2023/07/23 03:09:01;;;;;;;8.70;6.50;;;;;;;12.78;71.65;100491.05;105757;1271;100741;-81
2023/07/23 03:11:47;;;;;;;7.90;5.70;;;;;;;12.81;71.60;100485.61;105661;1273;98048;-82
2023/07/23 03:14:33;;;;;;;8.10;6.30;;;;;;;12.83;71.60;100480.33;105452;1271;98020;-81
2023/07/23 03:17:19;;;;;;;7.40;5.90;;;;;;;12.84;71.70;100475.98;105632;1271;97887;-81
2023/07/23 03:20:05;;;;;;;10.10;6.60;;;;;;;12.84;71.91;100476.72;105615;1270;101373;-82
2023/07/23 03:22:50;;;;;;;8.90;6.10;;;;;;;12.86;71.94;100480.66;105693;1270;99127;-81
2023/07/23 03:25:36;;;;;;;8.70;6.40;;;;;;;12.89;71.91;100482.27;105335;1276;98487;-81
2023/07/23 03:28:22;;;;;;;8.50;5.90;;;;;;;12.90;72.24;100484.23;105642;1269;97933;-79
2023/07/23 03:31:07;;;;;;;9.90;6.90;;;;;;;12.90;72.47;100486.62;105744;1274;97773;-79
2023/07/23 03:33:53;;;;;;;10.60;7.00;;;;;;;12.89;72.68;100481.48;105503;1274;101516;-82
2023/07/23 03:36:39;;;;;;;10.10;6.80;;;;;;;12.91;72.67;100483.19;105527;1270;100570;-82
2023/07/23 03:39:24;;;;;;;11.50;7.70;;;;;;;12.95;72.85;100479.54;105551;1271;97934;-81
2023/07/23 03:42:10;;;;;;;9.40;7.00;;;;;;;13.01;72.67;100477.70;105169;1276;98056;-81
2023/07/23 03:44:55;;;;;;;10.70;6.50;;;;;;;13.07;73.06;100479.42;105508;1276;96061;-81
2023/07/23 04:11:51;;;;;;;11.00;6.90;;;;;;;13.23;75.42;100474.43;103316;1295;635841;-80
2023/07/23 04:14:43;;;;;;;11.60;8.30;;;;;;;13.25;75.49;100484.23;105976;1271;95910;-82
2023/07/23 04:17:28;;;;;;;8.00;6.60;;;;;;;13.30;75.74;100487.42;106249;1272;96011;-82
2023/07/23 04:20:14;;;;;;;10.40;7.10;;;;;;;13.39;75.65;100485.70;105753;1267;97322;-81
2023/07/23 04:23:00;;;;;;;12.80;7.70;;;;;;;13.50;75.65;100485.45;105925;1269;100870;-81
2023/07/23 04:25:45;;;;;;;9.50;7.10;;;;;;;13.61;75.73;100482.08;105804;1269;125819;-81
2023/07/23 04:28:31;;;;;;;12.90;7.60;;;;;;;13.73;75.89;100481.27;106101;1270;95895;-80
2023/07/23 04:31:16;;;;;;;9.80;7.20;;;;;;;13.84;75.68;100480.17;106045;1268;96017;-83
2023/07/23 04:34:02;;;;;;;7.70;6.70;;;;;;;13.94;75.55;100475.30;106168;1269;98641;-81
2023/07/23 04:36:51;;;;;;;11.10;7.90;;;;;;;14.05;75.65;100472.31;106155;1269;99148;-82
2023/07/23 04:39:37;;;;;;;12.20;7.70;;;;;;;14.16;75.82;100471.16;105973;1269;97736;-82
2023/07/23 04:42:23;;;;;;;14.50;7.60;;;;;;;14.26;75.82;100468.85;105937;1264;95821;-81
2023/07/23 04:45:08;;;;;;;8.50;7.20;;;;;;;14.36;76.04;100468.58;105869;1267;95960;-81
2023/07/23 04:47:54;;;;;;;10.00;7.70;;;;;;;14.46;76.22;100472.30;105940;1267;100065;-81
2023/07/23 04:50:40;;;;;;;11.30;6.90;;;;;;;14.57;76.24;100470.96;105872;1264;99243;-81
2023/07/23 04:53:26;;;;;;;10.60;6.80;;;;;;;14.65;76.36;100470.13;105866;1269;97825;-81
2023/07/23 04:56:12;;;;;;;8.10;5.90;;;;;;;14.78;76.53;100471.89;107670;1263;95906;-82
2023/07/23 04:58:58;;;;;;;12.10;6.40;;;;;;;14.93;76.39;100471.58;105866;1266;95945;-82
2023/07/23 05:01:43;;;;;;;11.40;6.70;;;;;;;15.07;76.31;100473.71;106233;1261;99930;-82
2023/07/23 05:04:29;;;;;;;7.60;6.20;;;;;;;15.21;76.02;100468.00;106245;1265;99219;-81
2023/07/23 05:07:14;;;;;;;7.70;6.10;;;;;;;15.35;75.72;100467.92;106106;1262;97784;-82
2023/07/23 05:09:59;;;;;;;12.50;7.70;;;;;;;15.47;75.54;100468.18;106499;1264;96701;-81
2023/07/23 05:12:45;;;;;;;8.70;6.20;;;;;;;15.61;75.66;100467.80;106310;1260;96882;-81
2023/07/23 05:15:30;;;;;;;9.90;6.20;;;;;;;15.74;75.97;100470.38;106685;1257;98668;-81
2023/07/23 05:18:16;;;;;;;9.70;6.50;;;;;;;15.86;75.37;100467.84;106908;1256;99806;-82
2023/07/23 05:21:03;;;;;;;9.50;6.00;;;;;;;15.98;75.03;100465.91;106624;1259;97736;-82
2023/07/23 05:23:48;;;;;;;8.00;6.30;;;;;;;16.07;74.85;100467.27;106944;1254;95871;-83
2023/07/23 05:26:33;;;;;;;7.50;5.30;;;;;;;16.14;74.72;100472.13;106576;1254;95899;-82
2023/07/23 05:29:19;;;;;;;11.90;6.20;;;;;;;16.21;74.54;100476.21;106521;1254;98728;-81
2023/07/23 05:32:04;;;;;;;7.60;6.10;;;;;;;16.29;74.23;100474.86;106967;1257;100322;-81
2023/07/23 05:34:50;;;;;;;8.70;5.80;;;;;;;16.36;74.13;100473.36;106644;1259;99121;-82
2023/07/23 05:37:36;;;;;;;8.70;5.70;;;;;;;16.44;73.68;100467.81;106476;1253;97237;-81
2023/07/23 05:40:22;;;;;;;7.60;5.50;;;;;;;16.53;73.91;100463.77;106780;1258;95946;-82
2023/07/23 05:43:13;;;;;;;5.80;5.10;;;;;;;16.63;73.33;100463.59;106929;1257;98733;-81
2023/07/23 05:45:58;;;;;;;9.90;5.70;;;;;;;16.70;72.80;100465.64;106886;1254;100386;-81
2023/07/23 05:48:44;;;;;;;6.00;5.30;;;;;;;16.77;72.63;100461.64;106856;1254;97874;-82
2023/07/23 05:51:29;;;;;;;7.30;5.60;;;;;;;16.82;71.67;100459.67;106537;1260;95361;-82
2023/07/23 05:54:15;;;;;;;5.70;4.70;;;;;;;16.93;71.73;100458.07;106311;1255;97092;-82
2023/07/23 05:57:00;;;;;;;7.70;4.90;;;;;;;17.09;71.46;100453.54;106643;1254;98635;-84
2023/07/23 05:59:46;;;;;;;7.50;5.40;;;;;;;17.21;71.15;100447.80;106522;1254;99221;-82
2023/07/23 06:02:32;;;;;;;9.00;6.00;;;;;;;17.32;70.35;100443.91;106434;1254;98200;-83
2023/07/23 06:05:17;;;;;;;9.50;4.90;;;;;;;17.47;69.99;100443.57;106333;1260;95891;-84
2023/07/23 06:08:03;;;;;;;7.50;4.90;;;;;;;17.63;69.88;100443.63;106424;1259;95899;-82
2023/07/23 06:10:48;;;;;;;7.60;5.00;;;;;;;17.79;69.44;100442.54;106497;1254;98615;-82
2023/07/23 06:13:34;;;;;;;5.40;4.10;;;;;;;17.98;69.43;100442.79;106502;1260;99254;-83
2023/07/23 06:16:19;;;;;;;5.40;4.70;;;;;;;18.19;68.51;100442.73;106424;1254;97798;-84
2023/07/23 06:19:05;;;;;;;6.00;4.50;;;;;;;18.36;67.35;100442.92;106381;1260;95861;-85
2023/07/23 06:21:50;;;;;;;4.90;4.40;;;;;;;18.52;66.51;100438.31;106651;1260;95868;-84
2023/07/23 06:24:36;;;;;;;7.20;4.50;;;;;;;18.72;65.90;100435.02;106695;1257;106923;-80
2023/07/23 06:27:21;;;;;;;6.00;4.70;;;;;;;18.91;65.34;100432.91;106559;1254;99664;-85
2023/07/23 06:30:08;;;;;;;9.60;4.80;;;;;;;19.05;65.01;100428.27;106499;1261;97835;-85
2023/07/23 06:32:53;;;;;;;5.10;4.60;;;;;;;19.13;64.35;100431.23;106242;1254;95986;-85
2023/07/23 06:35:43;;;;;;;7.00;4.90;;;;;;;19.17;63.43;100427.77;106428;1254;95963;-84
2023/07/23 06:38:28;;;;;;;4.70;3.90;;;;;;;19.20;62.97;100426.94;106354;1254;100022;-84
2023/07/23 06:41:13;;;;;;;6.10;4.10;;;;;;;19.24;62.80;100424.20;106179;1258;101017;-86
2023/07/23 06:43:59;;;;;;;5.00;4.00;;;;;;;19.31;62.20;100420.61;106396;1254;97803;-84
2023/07/23 06:46:44;;;;;;;5.50;4.10;;;;;;;19.37;61.83;100419.80;106415;1259;95932;-80
2023/07/23 06:49:30;;;;;;;5.60;4.40;;;;;;;19.41;61.10;100414.05;106558;1253;95908;-84
2023/07/23 06:52:15;;;;;;;4.40;3.80;;;;;;;19.49;60.97;100408.68;106739;1254;98798;-83
2023/07/23 06:55:01;;;;;;;4.40;3.50;;;;;;;19.57;60.26;100410.00;106431;1255;99107;-85
2023/07/23 06:57:47;;;;;;;4.00;3.50;;;;;;;19.66;60.05;100408.45;106382;1260;99169;-82
2023/07/23 07:00:32;;;;;;;4.10;3.50;;;;;;;19.82;60.05;100403.66;106423;1252;96027;-83
2023/07/23 07:03:18;;;;;;;7.60;3.30;;;;;;;20.05;59.56;100401.66;106180;1260;95909;-82
2023/07/23 07:06:06;;;;;;;6.20;4.00;;;;;;;20.27;59.08;100401.05;106472;1253;99981;-84
2023/07/23 07:08:51;;;;;;;5.40;3.40;;;;;;;20.41;58.54;100399.98;106462;1253;99310;-82
2023/07/23 07:11:37;;;;;;;5.50;3.80;;;;;;;20.46;58.15;100400.67;106253;1260;99073;-83
2023/07/23 07:14:22;;;;;;;6.80;3.00;;;;;;;20.48;57.44;100397.25;106249;1254;96031;-82
2023/07/23 07:17:08;;;;;;;5.00;3.10;;;;;;;20.49;57.12;100391.23;106471;1257;95831;-83
2023/07/23 07:19:54;;;;;;;5.70;3.90;;;;;;;20.55;56.97;100386.48;106524;1254;99967;-82
2023/07/23 07:22:40;;;;;;;5.20;3.80;;;;;;;20.67;56.93;100383.66;106518;1258;100119;-84
2023/07/23 07:25:25;;;;;;;8.50;3.50;;;;;;;20.86;56.94;100380.25;106524;1253;97775;-83
2023/07/23 07:28:10;;;;;;;5.10;2.80;;;;;;;21.03;56.80;100375.94;106749;1254;95981;-82
2023/07/23 07:34:22;;;;;;;5.30;2.90;;;;;;;21.40;54.24;100369.14;103511;1295;636216;-82
2023/07/23 07:37:08;;;;;;;3.30;2.90;;;;;;;21.50;54.05;100372.04;105730;1269;95887;-83
2023/07/23 07:39:53;;;;;;;5.80;3.30;;;;;;;21.57;53.71;100369.52;105936;1266;95890;-82
2023/07/23 07:42:40;;;;;;;4.10;3.10;;;;;;;21.64;53.85;100362.95;105604;1266;98522;-82
2023/07/23 07:45:26;;;;;;;4.60;3.10;;;;;;;21.74;53.64;100359.95;105432;1267;100360;-82
2023/07/23 07:48:11;;;;;;;4.80;2.80;;;;;;;21.86;53.61;100363.09;105319;1263;116126;-82
2023/07/23 07:51:03;;;;;;;5.10;3.50;;;;;;;21.96;52.73;100362.09;105743;1266;96201;-82
2023/07/23 07:53:49;;;;;;;4.80;2.90;;;;;;;22.03;52.56;100358.79;107258;1263;95979;-83
2023/07/23 07:56:35;;;;;;;5.60;3.20;;;;;;;22.13;52.17;100353.60;105779;1264;97258;-82
2023/07/23 07:59:21;;;;;;;3.80;3.10;;;;;;;22.23;52.38;100349.58;106285;1259;100061;-83
2023/07/23 08:02:07;;;;;;;3.90;2.80;;;;;;;22.31;52.23;100346.38;106239;1258;97757;-83
2023/07/23 08:04:52;;;;;;;4.00;3.60;;;;;;;22.41;52.26;100342.52;106499;1256;95862;-83
2023/07/23 08:07:38;;;;;;;6.80;3.60;;;;;;;22.53;52.11;100339.27;106450;1254;95940;-81
2023/07/23 08:10:24;;;;;;;10.50;3.60;;;;;;;22.63;51.54;100337.00;106211;1257;98698;-82
2023/07/23 08:13:10;;;;;;;5.00;3.00;;;;;;;22.71;51.24;100329.17;108296;1256;99190;-82
2023/07/23 08:15:56;;;;;;;4.90;3.10;;;;;;;22.76;50.69;100329.38;108310;1257;97722;-83
2023/07/23 08:18:41;;;;;;;4.90;3.40;;;;;;;22.80;50.44;100325.07;106732;1256;95950;-84
2023/07/23 08:21:27;;;;;;;4.40;4.00;;;;;;;22.82;50.49;100322.81;106052;1257;95956;-82
2023/07/23 08:24:13;;;;;;;6.00;3.50;;;;;;;22.84;50.68;100324.73;106251;1257;99942;-82
2023/07/23 08:27:02;;;;;;;4.40;3.50;;;;;;;22.88;50.26;100325.23;106203;1259;99284;-83
2023/07/23 08:29:48;;;;;;;7.70;3.50;;;;;;;22.93;50.56;100322.70;106154;1259;98397;-84
2023/07/23 08:32:33;;;;;;;4.60;3.50;;;;;;;22.97;50.12;100323.84;106185;1257;96455;-83
2023/07/23 08:35:19;;;;;;;5.00;3.00;;;;;;;22.98;49.98;100320.13;106194;1262;96328;-82
2023/07/23 08:38:05;;;;;;;5.30;3.80;;;;;;;22.99;49.68;100318.17;106121;1257;98710;-82
2023/07/23 08:41:03;;;;;;;7.30;3.40;;;;;;;23.00;49.68;100315.44;106193;1257;99937;-82
2023/07/23 08:44:14;;;;;;;6.50;3.30;;;;;;;23.03;49.41;100312.65;106026;1259;97848;-83
2023/07/23 08:47:21;;;;;;;5.20;3.30;;;;;;;23.06;49.52;100307.73;106203;1256;95902;-82
2023/07/23 08:50:07;;;;;;;4.60;3.40;;;;;;;23.10;49.30;100306.68;108500;1255;93894;-84
2023/07/23 08:52:54;;;;;;;5.10;3.00;;;;;;;23.14;49.10;100309.23;107940;1256;98641;-82
2023/07/23 08:55:44;;;;;;;4.80;2.80;;;;;;;23.20;48.73;100305.23;106418;1257;100011;-82
2023/07/23 08:58:31;;;;;;;3.70;3.20;;;;;;;23.31;49.05;100301.67;106043;1255;97692;-82
2023/07/23 09:01:16;;;;;;;4.60;3.60;;;;;;;23.41;49.12;100298.00;105987;1256;96961;-83
2023/07/23 09:04:04;;;;;;;3.40;2.90;;;;;;;23.49;48.60;100297.21;106029;1259;95886;-81
2023/07/23 09:06:51;;;;;;;3.40;3.10;;;;;;;23.58;48.23;100298.66;106084;1257;99449;-82
2023/07/23 09:09:37;;;;;;;8.00;3.70;;;;;;;23.74;48.76;100294.54;106585;1260;98999;-82
2023/07/23 09:12:22;;;;;;;3.80;3.30;;;;;;;23.94;48.34;100288.98;106125;1260;97814;-81
2023/07/23 09:15:08;;;;;;;7.00;3.60;;;;;;;24.11;47.64;100285.66;105791;1262;95826;-83
2023/07/23 09:17:54;;;;;;;6.60;3.60;;;;;;;24.23;47.37;100282.30;105907;1259;96107;-82
2023/07/23 09:20:39;;;;;;;5.50;3.70;;;;;;;24.33;46.99;100282.84;106055;1266;99980;-82
2023/07/23 09:23:26;;;;;;;5.00;3.90;;;;;;;24.36;46.65;100277.30;106033;1259;107760;-82
2023/07/23 09:26:12;;;;;;;3.90;3.40;;;;;;;24.42;46.47;100277.30;106596;1260;98786;-82
2023/07/23 09:28:59;;;;;;;8.10;3.30;;;;;;;24.46;46.26;100275.35;105949;1259;95975;-83
2023/07/23 09:31:45;;;;;;;5.80;3.10;;;;;;;24.52;46.76;100273.23;107306;1259;95270;-84
2023/07/23 09:34:33;;;;;;;9.90;4.10;;;;;;;24.67;46.50;100263.84;105700;1267;108601;-82
2023/07/23 09:37:18;;;;;;;3.80;3.30;;;;;;;24.79;46.54;100262.21;105787;1260;99364;-82
2023/07/23 09:40:04;;;;;;;4.60;3.00;;;;;;;24.95;46.00;100253.74;105865;1264;98987;-82
2023/07/23 09:42:50;;;;;;;7.80;3.00;;;;;;;25.09;45.33;100251.13;105715;1260;95883;-81
2023/07/23 09:45:39;;;;;;;5.60;3.20;;;;;;;25.21;45.11;100245.30;105806;1261;95958;-83
2023/07/23 09:48:26;;;;;;;4.60;2.80;;;;;;;25.37;44.91;100243.52;105903;1259;98740;-84
2023/07/23 09:51:12;;;;;;;5.00;2.90;;;;;;;25.46;43.93;100237.25;106037;1260;100182;-82
2023/07/23 09:54:02;;;;;;;4.20;3.40;;;;;;;25.47;43.94;100233.23;105981;1263;98616;-82
2023/07/23 09:56:49;;;;;;;5.50;3.10;;;;;;;25.44;43.67;100232.33;105986;1260;95894;-82
2023/07/23 09:59:36;;;;;;;6.10;3.40;;;;;;;25.42;43.43;100234.60;106309;1264;95814;-83
2023/07/23 10:02:25;;;;;;;5.50;3.70;;;;;;;25.44;43.54;100227.27;106154;1259;99392;-82
2023/07/23 10:05:12;;;;;;;7.40;3.60;;;;;;;25.46;43.31;100225.40;105877;1263;99026;-82
2023/07/23 10:08:03;;;;;;;3.50;3.20;;;;;;;25.40;42.76;100226.27;105783;1265;98497;-83
2023/07/23 10:10:49;;;;;;;4.90;3.40;;;;;;;25.31;42.75;100224.23;106087;1262;95850;-83
2023/07/23 10:13:36;;;;;;;4.60;2.80;;;;;;;25.22;42.74;100219.40;106092;1262;96700;-82
2023/07/23 10:16:25;;;;;;;7.90;3.50;;;;;;;25.20;42.72;100214.95;106127;1257;98717;-82
2023/07/23 10:19:13;;;;;;;3.70;3.00;;;;;;;25.20;43.15;100210.11;106313;1259;100373;-82
2023/07/23 10:21:59;;;;;;;5.40;2.90;;;;;;;25.21;43.18;100207.18;105943;1257;99030;-82
2023/07/23 10:24:54;;;;;;;4.80;3.00;;;;;;;25.21;42.73;100208.46;105938;1259;95895;-83
2023/07/23 10:27:39;;;;;;;5.30;3.50;;;;;;;25.17;42.21;100202.42;106002;1262;95817;-83
2023/07/23 10:30:26;;;;;;;3.40;3.00;;;;;;;25.10;42.24;100199.48;106026;1264;98719;-83
2023/07/23 10:33:14;;;;;;;3.10;2.80;;;;;;;25.01;42.47;100199.63;105961;1264;99311;-83
2023/07/23 10:36:07;;;;;;;4.20;3.10;;;;;;;24.91;42.65;100193.67;106147;1260;97785;-83
2023/07/23 10:39:13;;;;;;;7.00;3.30;;;;;;;24.83;42.45;100191.30;106187;1258;95894;-83
2023/07/23 10:41:59;;;;;;;4.00;2.80;;;;;;;24.76;42.63;100189.88;106008;1260;95896;-83
2023/07/23 10:44:47;;;;;;;10.00;3.20;;;;;;;24.70;42.79;100188.76;105944;1254;101050;-82
2023/07/23 10:47:32;;;;;;;4.80;3.30;;;;;;;24.67;43.08;100185.67;106173;1256;99153;-84
2023/07/23 10:50:20;;;;;;;4.40;3.30;;;;;;;24.65;42.69;100188.88;106161;1254;99065;-82
2023/07/23 10:53:07;;;;;;;4.00;3.50;;;;;;;24.62;42.78;100184.63;105995;1259;95832;-84
2023/07/23 10:55:52;;;;;;;6.10;3.50;;;;;;;24.60;42.82;100183.77;106129;1259;97171;-84
2023/07/23 10:58:40;;;;;;;6.40;3.40;;;;;;;24.61;43.01;100186.67;106269;1257;99986;-82
2023/07/23 11:01:27;;;;;;;5.60;3.50;;;;;;;24.62;43.09;100185.33;106162;1254;99088;-82
2023/07/23 11:04:16;;;;;;;5.20;3.10;;;;;;;24.62;43.15;100187.14;106111;1260;97753;-85
2023/07/23 11:07:06;;;;;;;5.30;3.40;;;;;;;24.58;42.91;100196.39;107521;1254;95979;-85
2023/07/23 11:09:54;;;;;;;3.90;3.50;;;;;;;24.52;43.07;100201.25;106058;1260;95985;-82
2023/07/23 11:12:40;;;;;;;9.60;3.90;;;;;;;24.45;42.62;100203.23;106441;1256;100033;-83
2023/07/23 11:15:26;;;;;;;5.40;2.90;;;;;;;24.37;42.68;100201.23;106020;1259;100411;-83
2023/07/23 11:18:12;;;;;;;4.40;3.00;;;;;;;24.31;42.72;100193.71;105995;1261;99175;-83
2023/07/23 11:21:04;;;;;;;4.20;3.10;;;;;;;24.29;42.90;100187.17;106099;1256;95763;-83
2023/07/23 11:23:50;;;;;;;6.00;3.40;;;;;;;24.28;43.01;100183.30;106064;1262;96583;-84
2023/07/23 11:26:35;;;;;;;4.60;3.50;;;;;;;24.28;43.46;100181.48;106012;1256;99724;-83
2023/07/23 11:29:23;;;;;;;4.80;2.90;;;;;;;24.28;43.11;100178.92;106226;1256;99238;-84
2023/07/23 11:32:09;;;;;;;4.20;2.90;;;;;;;24.30;42.97;100181.69;105958;1258;99094;-85
2023/07/23 11:34:55;;;;;;;4.50;3.00;;;;;;;24.32;43.40;100182.00;106106;1257;95986;-83
2023/07/23 11:37:49;;;;;;;4.10;2.80;;;;;;;24.34;43.78;100181.38;106093;1256;95963;-83
2023/07/23 11:40:35;;;;;;;4.50;3.20;;;;;;;24.36;43.69;100169.53;106123;1256;99964;-84
2023/07/23 11:43:20;;;;;;;6.80;3.10;;;;;;;24.39;43.60;100168.63;106180;1256;101039;-82
2023/07/23 11:46:05;;;;;;;6.90;3.20;;;;;;;24.45;43.87;100166.44;106115;1256;99425;-82
2023/07/23 11:48:53;;;;;;;6.20;2.90;;;;;;;24.54;44.08;100162.69;106128;1256;95890;-83
2023/07/23 11:51:39;;;;;;;3.30;2.90;;;;;;;24.63;44.44;100162.82;105995;1258;95973;-82
2023/07/23 11:54:24;;;;;;;3.20;2.70;;;;;;;24.70;43.72;100152.23;106075;1255;98644;-82
2023/07/23 11:57:10;;;;;;;6.30;3.00;;;;;;;24.78;43.78;100151.95;105768;1259;99185;-83
2023/07/23 12:00:00;;;;;;;7.90;3.40;;;;;;;24.85;43.65;100143.61;105980;1261;98659;-84
2023/07/23 12:02:45;;;;;;;5.10;3.40;;;;;;;24.93;43.78;100141.57;105986;1256;95888;-84
2023/07/23 12:05:32;;;;;;;4.40;3.00;;;;;;;25.03;43.94;100136.30;105978;1259;95887;-83
2023/07/23 12:08:18;;;;;;;4.20;3.20;;;;;;;25.14;43.97;100134.14;105882;1259;99501;-82
2023/07/23 12:11:12;;;;;;;5.70;2.90;;;;;;;25.24;43.62;100127.23;106116;1256;99358;-82
2023/07/23 12:14:02;;;;;;;5.30;3.00;;;;;;;25.33;43.84;100123.91;106046;1257;98600;-84
2023/07/23 12:16:49;;;;;;;;;;;;;;;25.38;43.09;100123.30;106719;1256;96672;-83
2023/07/23 12:19:43;;;;;;;4.70;3.10;;;;;;;25.34;42.36;100120.06;106434;1256;96492;-83
2023/07/23 12:22:32;;;;;;;7.00;2.90;;;;;;;25.31;42.16;100119.77;106077;1257;101255;-84
2023/07/23 12:25:17;;;;;;;4.90;3.10;;;;;;;25.31;41.80;100118.95;106304;1256;100863;-82
2023/07/23 12:28:02;;;;;;;7.50;3.10;;;;;;;25.34;41.83;100112.95;105969;1257;97612;-84
2023/07/23 12:30:48;;;;;;;5.10;3.00;;;;;;;25.39;42.11;100115.17;106260;1256;97929;-83
2023/07/23 12:33:34;;;;;;;5.10;3.30;;;;;;;25.47;42.08;100113.60;105958;1259;98299;-85
2023/07/23 12:36:19;;;;;;;8.50;3.50;;;;;;;25.55;41.54;100109.65;106102;1253;99979;-82
2023/07/23 12:39:06;;;;;;;5.30;3.30;;;;;;;25.61;41.15;100107.48;106058;1257;99914;-83
2023/07/23 12:41:51;;;;;;;6.70;3.90;;;;;;;25.64;41.05;100108.73;106500;1257;97719;-83
2023/07/23 12:44:37;;;;;;;5.10;2.70;;;;;;;25.70;41.58;100108.64;106219;1256;96878;-84
2023/07/23 12:47:22;;;;;;;7.80;2.70;;;;;;;25.78;41.55;100104.30;106105;1261;98271;-83
2023/07/23 12:50:08;;;;;;;5.20;3.40;;;;;;;25.85;41.54;100099.73;106199;1259;100070;-83
2023/07/23 12:53:23;;;;;;;3.90;3.00;;;;;;;25.94;41.50;100097.55;106230;1256;100451;-92
2023/07/23 12:56:30;;;;;;;9.40;3.20;;;;;;;26.05;40.69;100090.23;106799;1255;98980;-84
2023/07/23 12:59:16;;;;;;;5.10;3.20;;;;;;;26.15;40.27;100093.88;106151;1256;97149;-86
2023/07/23 13:02:02;;;;;;;4.30;2.80;;;;;;;26.28;40.77;100085.19;106247;1257;96581;-83
2023/07/23 13:04:47;;;;;;;3.20;2.60;;;;;;;26.42;40.65;100083.98;106337;1253;100990;-82
2023/07/23 13:07:33;;;;;;;3.90;2.90;;;;;;;26.55;40.53;100083.90;106321;1259;100957;-86
2023/07/23 13:10:21;;;;;;;4.40;2.90;;;;;;;26.66;39.72;100089.02;106372;1256;99091;-93